Time;durP1;ratioP1;P1;durP2;ratioP2;P2;SDS_P1;SDS_P2;PMS_P1;PMS_P2;Temp;Humidity;BMP_temperature;BMP_pressure;BME280_temperature;BME280_humidity;BME280_pressure;Samples;Min_cycle;Max_cycle;Signal;HPM_P1;HPM_P2
2022/04/26 03:37:05;;;;;;;;;;;6.60;99.90;;;;;;5003072;28;19937;-67
2022/04/26 03:39:32;;;;;;;;;;;6.70;99.90;;;;;;5003728;28;19947;-67
2022/04/26 03:41:58;;;;;;;;;;;6.60;99.90;;;;;;5000645;28;20287;-67
2022/04/26 03:44:23;;;;;;;;;;;6.60;99.90;;;;;;5006868;28;19921;-67
2022/04/26 03:46:49;;;;;;;;;;;6.60;99.90;;;;;;5001442;28;20008;-66
2022/04/26 03:49:14;;;;;;;;;;;6.60;99.90;;;;;;5004051;28;20406;-67
2022/04/26 03:51:41;;;;;;;;;;;6.60;99.90;;;;;;5004290;28;19971;-67
2022/04/26 03:54:06;;;;;;;;;;;6.60;99.90;;;;;;5000152;28;19921;-67
2022/04/26 03:56:32;;;;;;;;;;;6.60;99.90;;;;;;5011716;28;19976;-67
2022/04/26 03:58:58;;;;;;;;;;;6.60;99.90;;;;;;5003666;28;19921;-67
2022/04/26 04:01:23;;;;;;;;;;;6.60;99.90;;;;;;5007485;28;19921;-67
2022/04/26 04:03:49;;;;;;;;;;;6.60;99.90;;;;;;5020279;28;19928;-68
2022/04/26 04:06:14;;;;;;;;;;;6.60;99.90;;;;;;5012360;28;20015;-67
2022/04/26 04:08:40;;;;;;;;;;;7.20;99.90;;;;;;5010030;28;19929;-67
2022/04/26 04:11:06;;;;;;;;;;;6.60;99.90;;;;;;5003361;28;19921;-67
2022/04/26 04:13:31;;;;;;;;;;;6.60;99.90;;;;;;5008544;28;19967;-67
2022/04/26 04:15:57;;;;;;;;;;;6.60;99.90;;;;;;5007766;28;20008;-67
2022/04/26 04:21:07;;;;;;;;;;;6.80;99.90;;;;;;5004121;28;19936;-67
2022/04/26 04:23:35;;;;;;;;;;;6.60;99.90;;;;;;5003121;28;20358;-68
2022/04/26 04:26:00;;;;;;;;;;;6.70;99.90;;;;;;5006020;28;19944;-67
2022/04/26 04:28:26;;;;;;;;;;;6.70;99.90;;;;;;5003896;28;20376;-68
2022/04/26 04:30:51;;;;;;;;;;;7.00;99.90;;;;;;5004650;28;19929;-67
2022/04/26 04:33:17;;;;;;;;;;;8.30;99.90;;;;;;5009336;28;19922;-67
2022/04/26 04:35:42;;;;;;;;;;;6.70;99.90;;;;;;5007077;28;19922;-67
2022/04/26 04:38:08;;;;;;;;;;;6.70;99.90;;;;;;5008855;28;19928;-68
2022/04/26 04:40:33;;;;;;;;;;;6.70;99.90;;;;;;4992124;28;19960;-67
2022/04/26 04:42:59;;;;;;;;;;;7.10;99.90;;;;;;5003158;28;19932;-67
2022/04/26 04:45:24;;;;;;;;;;;6.70;99.90;;;;;;5005761;28;19976;-69
2022/04/26 04:47:50;;;;;;;;;;;6.70;99.90;;;;;;5001489;28;19922;-68
2022/04/26 04:50:19;;;;;;;;;;;6.70;99.90;;;;;;5004795;28;19928;-68
2022/04/26 04:52:45;;;;;;;;;;;6.70;99.90;;;;;;5006000;28;20036;-67
2022/04/26 04:55:11;;;;;;;;;;;6.60;99.90;;;;;;5009790;28;19922;-67
2022/04/26 04:57:36;;;;;;;;;;;6.70;99.90;;;;;;5008245;28;20249;-67
2022/04/26 05:00:03;;;;;;;;;;;6.70;99.90;;;;;;5023389;28;19921;-68
2022/04/26 05:02:31;;;;;;;;;;;6.70;99.90;;;;;;5002247;28;20395;-67
2022/04/26 05:04:57;;;;;;;;;;;6.90;99.90;;;;;;5007392;28;19948;-67
2022/04/26 05:07:23;;;;;;;;;;;6.80;99.90;;;;;;5003199;28;19941;-67
2022/04/26 05:09:50;;;;;;;;;;;6.80;99.90;;;;;;5008591;28;20040;-68
2022/04/26 05:12:16;;;;;;;;;;;7.30;99.90;;;;;;4999072;28;20013;-67
2022/04/26 05:14:42;;;;;;;;;;;6.80;99.90;;;;;;5009049;28;19948;-67
2022/04/26 05:17:07;;;;;;;;;;;6.80;99.90;;;;;;5004428;28;19922;-68
2022/04/26 05:19:33;;;;;;;;;;;6.80;99.90;;;;;;5001580;28;19930;-68
2022/04/26 05:21:59;;;;;;;;;;;6.80;99.90;;;;;;4999593;28;19933;-68
2022/04/26 05:27:09;;;;;;;;;;;6.90;99.90;;;;;;5004993;28;19976;-67
2022/04/26 05:29:35;;;;;;;;;;;7.10;99.90;;;;;;5002709;28;19935;-68
2022/04/26 05:32:01;;;;;;;;;;;7.50;99.90;;;;;;5008682;28;19921;-68
2022/04/26 05:34:28;;;;;;;;;;;7.40;99.90;;;;;;5005460;28;20027;-68
2022/04/26 05:36:53;;;;;;;;;;;7.60;99.90;;;;;;5001472;28;19922;-67
2022/04/26 05:39:19;;;;;;;;;;;7.70;99.90;;;;;;5007213;28;19925;-67
2022/04/26 05:41:44;;;;;;;;;;;7.70;99.90;;;;;;5006634;28;19928;-67
2022/04/26 05:44:10;;;;;;;;;;;8.00;99.90;;;;;;5013063;28;19932;-69
2022/04/26 05:46:35;;;;;;;;;;;8.20;99.90;;;;;;5004674;28;19921;-67
2022/04/26 05:49:01;;;;;;;;;;;8.40;99.90;;;;;;5002254;28;19929;-68
2022/04/26 05:51:27;;;;;;;;;;;8.60;99.90;;;;;;5004280;28;19961;-67
2022/04/26 05:53:52;;;;;;;;;;;8.60;99.90;;;;;;5001502;28;20394;-69
2022/04/26 05:56:18;;;;;;;;;;;8.60;99.90;;;;;;5005592;28;19929;-69
2022/04/26 05:58:43;;;;;;;;;;;8.80;99.90;;;;;;4997708;28;19929;-68
2022/04/26 06:01:09;;;;;;;;;;;8.70;99.90;;;;;;5008507;28;19961;-67
2022/04/26 06:03:35;;;;;;;;;;;8.40;99.90;;;;;;5001399;28;19922;-67
2022/04/26 06:06:00;;;;;;;;;;;8.40;99.90;;;;;;4993046;28;19921;-68
2022/04/26 06:08:26;;;;;;;;;;;8.40;99.90;;;;;;5004121;28;19944;-68
2022/04/26 06:10:51;;;;;;;;;;;8.50;99.90;;;;;;5001190;28;19921;-68
2022/04/26 06:13:17;;;;;;;;;;;8.50;99.90;;;;;;5008609;28;19929;-68
2022/04/26 06:15:43;;;;;;;;;;;8.80;99.90;;;;;;5021849;28;19921;-67
2022/04/26 06:18:08;;;;;;;;;;;8.60;99.90;;;;;;5003368;28;19925;-67
2022/04/26 06:20:34;;;;;;;;;;;8.80;99.90;;;;;;5009229;28;19921;-68
2022/04/26 06:23:00;;;;;;;;;;;8.50;99.90;;;;;;5003575;28;20101;-68
2022/04/26 06:25:26;;;;;;;;;;;8.40;99.90;;;;;;5017032;28;20284;-67
2022/04/26 06:27:52;;;;;;;;;;;8.50;99.90;;;;;;4997554;28;19921;-68
2022/04/26 06:30:18;;;;;;;;;;;8.50;99.90;;;;;;5015603;28;19968;-68
2022/04/26 06:32:43;;;;;;;;;;;8.60;99.90;;;;;;5007772;28;19926;-68
2022/04/26 06:35:10;;;;;;;;;;;8.70;99.90;;;;;;5007064;28;20016;-68
2022/04/26 06:37:38;;;;;;;;;;;8.60;99.90;;;;;;5019287;28;20363;-68
2022/04/26 06:40:04;;;;;;;;;;;8.80;99.90;;;;;;5023495;28;19976;-68
2022/04/26 06:42:30;;;;;;;;;;;9.10;99.90;;;;;;5005012;28;20368;-68
2022/04/26 06:44:55;;;;;;;;;;;9.70;99.90;;;;;;4998928;28;19961;-68
2022/04/26 06:47:21;;;;;;;;;;;10.00;99.90;;;;;;5006952;28;19921;-68
2022/04/26 06:49:46;;;;;;;;;;;10.00;99.90;;;;;;5010073;28;20494;-68
2022/04/26 06:52:15;;;;;;;;;;;10.40;99.90;;;;;;5008525;28;19928;-67
2022/04/26 06:54:40;;;;;;;;;;;9.80;99.90;;;;;;5011240;28;20016;-68
2022/04/26 06:57:06;;;;;;;;;;;9.80;99.90;;;;;;5005666;28;20005;-67
2022/04/26 06:59:32;;;;;;;;;;;10.00;99.90;;;;;;5006173;28;20033;-68
2022/04/26 07:01:57;;;;;;;;;;;9.70;99.90;;;;;;5006768;28;19921;-67
2022/04/26 07:04:23;;;;;;;;;;;9.90;99.90;;;;;;5015106;28;19921;-68
2022/04/26 07:06:48;;;;;;;;;;;10.90;99.90;;;;;;5004974;28;19925;-67
2022/04/26 07:09:14;;;;;;;;;;;9.50;99.90;;;;;;5005767;28;20410;-69
2022/04/26 07:11:42;;;;;;;;;;;9.40;99.90;;;;;;5013489;28;19921;-67
2022/04/26 07:14:09;;;;;;;;;;;9.50;99.90;;;;;;5015348;28;19937;-67
2022/04/26 07:16:34;;;;;;;;;;;9.60;99.90;;;;;;5015421;28;19921;-67
2022/04/26 07:19:00;;;;;;;;;;;9.80;99.90;;;;;;5010805;28;19928;-68
2022/04/26 07:21:25;;;;;;;;;;;9.80;99.90;;;;;;5012637;28;19921;-68
2022/04/26 07:23:51;;;;;;;;;;;10.20;99.90;;;;;;5001574;28;19976;-68
2022/04/26 07:26:16;;;;;;;;;;;10.10;99.90;;;;;;5012609;28;20379;-67
2022/04/26 07:28:42;;;;;;;;;;;9.70;99.90;;;;;;5013247;28;19921;-67
2022/04/26 07:31:08;;;;;;;;;;;10.00;99.90;;;;;;5013557;28;19921;-68
2022/04/26 07:36:22;;;;;;;;;;;9.70;99.90;;;;;;5005024;28;19927;-67
2022/04/26 07:38:47;;;;;;;;;;;9.60;99.90;;;;;;5009505;28;19928;-67
2022/04/26 07:41:13;;;;;;;;;;;9.70;99.90;;;;;;5001950;28;19921;-67
2022/04/26 07:43:39;;;;;;;;;;;9.70;99.90;;;;;;5003597;28;19925;-68
2022/04/26 07:46:05;;;;;;;;;;;9.60;99.90;;;;;;5005876;28;19922;-67
2022/04/26 07:48:30;;;;;;;;;;;9.60;99.90;;;;;;5013904;28;19922;-67
2022/04/26 07:50:56;;;;;;;;;;;9.60;99.90;;;;;;5003157;28;20008;-66
2022/04/26 07:53:21;;;;;;;;;;;9.90;99.90;;;;;;5011969;28;20000;-68
2022/04/26 07:55:47;;;;;;;;;;;9.80;99.90;;;;;;4980077;28;19988;-68
2022/04/26 07:58:12;;;;;;;;;;;9.80;99.90;;;;;;5002776;28;19921;-68
2022/04/26 08:00:38;;;;;;;;;;;9.80;99.90;;;;;;5011386;28;20014;-67
2022/04/26 08:03:05;;;;;;;;;;;9.90;99.90;;;;;;5013013;28;19960;-67
2022/04/26 08:05:30;;;;;;;;;;;9.80;99.90;;;;;;5002549;28;19964;-67
2022/04/26 08:07:56;;;;;;;;;;;10.10;99.90;;;;;;5003122;28;19976;-68
2022/04/26 08:10:21;;;;;;;;;;;10.40;99.90;;;;;;4995859;28;19921;-68
2022/04/26 08:12:47;;;;;;;;;;;10.60;99.90;;;;;;4997621;28;19922;-68
2022/04/26 08:15:14;;;;;;;;;;;10.80;99.90;;;;;;5004143;28;19922;-67
2022/04/26 08:17:40;;;;;;;;;;;10.70;99.90;;;;;;5025992;28;20328;-68
2022/04/26 08:20:09;;;;;;;;;;;10.90;99.90;;;;;;5012907;28;19975;-68
2022/04/26 08:22:37;;;;;;;;;;;10.70;99.90;;;;;;5010638;28;20342;-67
2022/04/26 08:27:48;;;;;;;;;;;10.80;99.90;;;;;;5006809;28;20024;-68
2022/04/26 08:30:13;;;;;;;;;;;11.00;99.90;;;;;;5013523;28;20012;-68
2022/04/26 08:32:40;;;;;;;;;;;11.10;99.90;;;;;;5013035;28;20351;-68
2022/04/26 08:35:06;;;;;;;;;;;11.00;99.90;;;;;;5013136;28;20287;-67
2022/04/26 08:37:33;;;;;;;;;;;10.90;99.90;;;;;;5004920;28;20294;-67
2022/04/26 08:40:04;;;;;;;;;;;11.00;99.90;;;;;;4994567;28;19922;-69
2022/04/26 08:42:57;;;;;;;;;;;11.20;99.90;;;;;;5023281;28;20029;-67
2022/04/26 08:45:23;;;;;;;;;;;11.20;99.90;;;;;;5006346;28;19930;-67
2022/04/26 08:53:17;;;;;;;;;;;10.80;99.90;;;;;;5009248;28;20389;-68
2022/04/26 08:55:44;;;;;;;;;;;10.70;99.90;;;;;;4999512;28;20327;-67
2022/04/26 08:58:14;;;;;;;;;;;11.00;99.90;;;;;;5008638;28;19921;-67
2022/04/26 09:00:40;;;;;;;;;;;11.40;99.90;;;;;;5012417;28;19921;-67
2022/04/26 09:03:11;;;;;;;;;;;11.60;99.90;;;;;;5016368;28;19928;-68
2022/04/26 09:05:37;;;;;;;;;;;11.90;99.90;;;;;;5021992;28;19928;-68
2022/04/26 09:08:22;;;;;;;;;;;12.30;98.30;;;;;;5009973;28;19921;-67
2022/04/26 09:10:47;;;;;;;;;;;12.40;98.10;;;;;;5010051;28;19922;-69
2022/04/26 09:13:15;;;;;;;;;;;12.40;97.70;;;;;;4998366;28;19930;-67
2022/04/26 09:15:47;;;;;;;;;;;12.20;97.10;;;;;;4998501;28;19922;-67
2022/04/26 09:18:15;;;;;;;;;;;11.90;97.40;;;;;;5006987;28;19921;-68
2022/04/26 09:20:41;;;;;;;;;;;11.60;97.70;;;;;;5007069;28;19937;-68
2022/04/26 09:23:26;;;;;;;;;;;11.50;98.30;;;;;;5006749;28;20356;-68
2022/04/26 09:25:53;;;;;;;;;;;11.50;98.70;;;;;;5016813;28;19921;-69
2022/04/26 09:28:20;;;;;;;;;;;11.60;98.20;;;;;;5006351;28;20384;-68
2022/04/26 09:30:47;;;;;;;;;;;11.80;98.40;;;;;;5001218;28;19952;-68
2022/04/26 09:33:29;;;;;;;;;;;11.80;98.00;;;;;;5018333;28;20420;-69
2022/04/26 09:36:01;;;;;;;;;;;11.90;96.60;;;;;;5005664;28;20326;-68
2022/04/26 09:38:31;;;;;;;;;;;11.70;96.60;;;;;;5008910;28;20296;-68
2022/04/26 09:41:05;;;;;;;;;;;12.00;96.90;;;;;;5008038;28;19921;-69
2022/04/26 09:43:31;;;;;;;;;;;12.10;96.10;;;;;;5023480;28;19921;-69
2022/04/26 09:45:57;;;;;;;;;;;11.80;96.20;;;;;;5007241;28;20007;-69
2022/04/26 09:48:27;;;;;;;;;;;11.70;96.90;;;;;;5011485;28;20378;-69
2022/04/26 09:50:53;;;;;;;;;;;11.70;97.00;;;;;;5011440;28;19929;-69
2022/04/26 09:53:18;;;;;;;;;;;11.70;96.40;;;;;;5010531;28;19925;-70
2022/04/26 09:55:45;;;;;;;;;;;11.60;96.90;;;;;;4991324;28;19928;-68
2022/04/26 09:58:11;;;;;;;;;;;11.50;96.70;;;;;;5006445;28;20338;-68
2022/04/26 10:00:39;;;;;;;;;;;12.10;96.90;;;;;;4995876;28;20295;-69
2022/04/26 10:03:06;;;;;;;;;;;12.20;96.60;;;;;;5012429;28;19928;-69
2022/04/26 10:05:34;;;;;;;;;;;12.10;95.60;;;;;;5015905;28;20060;-68
2022/04/26 10:08:00;;;;;;;;;;;12.10;96.20;;;;;;5011404;28;19979;-68
2022/04/26 10:10:27;;;;;;;;;;;12.40;95.90;;;;;;5013467;28;19926;-68
2022/04/26 10:15:37;;;;;;;;;;;12.50;95.30;;;;;;5011575;28;19961;-68
2022/04/26 10:18:22;;;;;;;;;;;12.90;95.80;;;;;;5008037;28;19922;-68
2022/04/26 10:20:48;;;;;;;;;;;12.90;95.00;;;;;;5013545;28;20039;-69
2022/04/26 10:23:16;;;;;;;;;;;13.00;94.70;;;;;;5015797;28;19944;-69
2022/04/26 10:26:02;;;;;;;;;;;13.10;94.80;;;;;;5013917;28;20363;-68
2022/04/26 10:28:28;;;;;;;;;;;13.50;94.90;;;;;;5013805;28;20062;-68
2022/04/26 10:30:54;;;;;;;;;;;14.00;94.30;;;;;;5005873;28;20013;-69
2022/04/26 10:33:33;;;;;;;;;;;14.20;94.30;;;;;;5007178;28;19929;-68
2022/04/26 10:36:25;;;;;;;;;;;14.40;90.40;;;;;;5015319;28;19922;-69
2022/04/26 10:39:07;;;;;;;;;;;14.40;90.60;;;;;;5007513;28;19929;-68
2022/04/26 10:41:46;;;;;;;;;;;14.50;91.50;;;;;;4996303;28;19968;-69
2022/04/26 10:44:17;;;;;;;;;;;14.90;87.60;;;;;;5009507;28;19925;-68
2022/04/26 10:46:44;;;;;;;;;;;15.00;86.40;;;;;;5010110;28;19928;-69
2022/04/26 10:49:24;;;;;;;;;;;14.60;86.70;;;;;;5016060;28;19922;-69
2022/04/26 10:51:51;;;;;;;;;;;14.80;86.70;;;;;;5015215;28;19928;-68
2022/04/26 10:54:58;;;;;;;;;;;15.00;90.00;;;;;;5011420;28;19922;-69
2022/04/26 10:57:23;;;;;;;;;;;15.40;86.90;;;;;;4972155;28;19953;-68
2022/04/26 10:59:56;;;;;;;;;;;15.20;83.80;;;;;;4955844;28;19921;-69
2022/04/26 11:02:25;;;;;;;;;;;15.10;82.90;;;;;;4985432;28;19977;-68
2022/04/26 11:04:59;;;;;;;;;;;15.40;84.30;;;;;;4997581;28;20265;-67
2022/04/26 11:07:26;;;;;;;;;;;15.70;86.70;;;;;;5012355;28;20017;-67
2022/04/26 11:09:53;;;;;;;;;;;15.70;80.10;;;;;;5011843;28;19965;-69
2022/04/26 11:12:19;;;;;;;;;;;15.30;79.50;;;;;;5011850;28;19921;-68
2022/04/26 11:14:46;;;;;;;;;;;15.20;81.70;;;;;;5014263;28;19948;-68
2022/04/26 11:17:11;;;;;;;;;;;15.40;81.80;;;;;;5014083;28;19921;-68
2022/04/26 11:19:38;;;;;;;;;;;15.80;80.60;;;;;;5015358;28;19983;-68
2022/04/26 11:22:04;;;;;;;;;;;15.90;79.40;;;;;;5011847;28;20375;-68
2022/04/26 11:29:58;;;;;;;;;;;16.10;78.30;;;;;;5005848;28;19940;-68
2022/04/26 11:32:33;;;;;;;;;;;16.00;74.00;;;;;;5006317;28;19921;-69
2022/04/26 11:34:58;;;;;;;;;;;17.10;77.30;;;;;;5013876;28;19922;-69
2022/04/26 11:37:24;;;;;;;;;;;16.00;74.80;;;;;;5004178;28;19928;-68
2022/04/26 11:39:50;;;;;;;;;;;15.50;76.70;;;;;;5010430;28;19961;-69
2022/04/26 11:42:16;;;;;;;;;;;15.10;77.80;;;;;;5006506;28;20283;-69
2022/04/26 11:45:00;;;;;;;;;;;15.20;77.80;;;;;;5012136;28;19975;-67
2022/04/26 11:47:42;;;;;;;;;;;15.50;79.70;;;;;;5005220;28;19922;-68
2022/04/26 11:50:08;;;;;;;;;;;15.90;76.20;;;;;;4996497;28;20374;-68
2022/04/26 11:52:34;;;;;;;;;;;16.30;76.20;;;;;;5001914;28;20272;-68
2022/04/26 11:54:59;;;;;;;;;;;16.20;75.50;;;;;;5009331;28;19932;-66
2022/04/26 11:57:25;;;;;;;;;;;16.40;75.10;;;;;;4996014;28;20371;-68
2022/04/26 11:59:50;;;;;;;;;;;16.90;73.30;;;;;;4991963;28;19929;-68
2022/04/26 12:02:16;;;;;;;;;;;16.80;73.20;;;;;;4997013;28;19925;-67
2022/04/26 12:04:41;;;;;;;;;;;16.20;72.60;;;;;;5003778;28;19932;-68
2022/04/26 12:07:07;;;;;;;;;;;15.70;74.70;;;;;;5007674;28;19931;-68
2022/04/26 12:09:33;;;;;;;;;;;15.40;75.40;;;;;;5010522;28;19925;-67
2022/04/26 12:12:00;;;;;;;;;;;15.60;77.70;;;;;;5008243;28;19983;-67
2022/04/26 12:14:26;;;;;;;;;;;15.80;74.70;;;;;;5002109;28;20322;-68
2022/04/26 12:16:55;;;;;;;;;;;16.00;74.80;;;;;;5003870;28;19925;-68
2022/04/26 12:19:37;;;;;;;;;;;15.60;73.80;;;;;;5003106;28;19968;-68
2022/04/26 12:22:03;;;;;;;;;;;15.60;74.50;;;;;;5009845;28;19925;-69
2022/04/26 12:24:30;;;;;;;;;;;16.00;73.80;;;;;;5007460;28;19925;-68
2022/04/26 12:27:02;;;;;;;;;;;16.40;75.60;;;;;;5008750;28;20032;-68
2022/04/26 12:29:39;;;;;;;;;;;17.00;73.90;;;;;;5005013;28;19962;-67
2022/04/26 12:32:08;;;;;;;;;;;17.80;71.40;;;;;;4996075;28;20432;-67
2022/04/26 12:34:34;;;;;;;;;;;17.20;69.50;;;;;;5000595;28;20019;-68
2022/04/26 12:37:00;;;;;;;;;;;17.00;70.50;;;;;;4992186;28;20418;-68
2022/04/26 12:39:27;;;;;;;;;;;16.40;70.30;;;;;;5000957;28;19976;-67
2022/04/26 12:41:55;;;;;;;;;;;16.80;72.40;;;;;;5001805;28;20376;-67
2022/04/26 12:44:21;;;;;;;;;;;16.90;69.90;;;;;;5008878;28;20406;-68
2022/04/26 12:52:37;;;;;;;;;;;17.20;68.10;;;;;;5009075;28;20417;-68
2022/04/26 12:55:03;;;;;;;;;;;16.70;68.20;;;;;;5005619;28;20286;-68
2022/04/26 12:57:28;;;;;;;;;;;16.60;68.90;;;;;;5007009;28;19925;-67
2022/04/26 12:59:54;;;;;;;;;;;16.80;70.10;;;;;;5006871;28;19932;-66
2022/04/26 13:02:20;;;;;;;;;;;17.00;68.50;;;;;;5004182;28;20307;-68
2022/04/26 13:04:45;;;;;;;;;;;16.50;69.80;;;;;;5002274;28;19925;-67
2022/04/26 13:07:11;;;;;;;;;;;16.10;70.80;;;;;;5009817;28;20374;-67
2022/04/26 13:09:36;;;;;;;;;;;15.90;72.30;;;;;;5004689;28;19975;-68
2022/04/26 13:12:03;;;;;;;;;;;16.30;71.00;;;;;;5019092;28;19925;-68
2022/04/26 13:14:28;;;;;;;;;;;16.10;71.20;;;;;;5009795;28;19926;-67
2022/04/26 13:16:54;;;;;;;;;;;15.80;72.70;;;;;;5011938;28;19928;-68
2022/04/26 13:19:19;;;;;;;;;;;15.60;72.90;;;;;;5013151;28;20045;-68
2022/04/26 13:21:45;;;;;;;;;;;15.40;73.70;;;;;;5019338;28;20004;-67
2022/04/26 13:24:11;;;;;;;;;;;14.90;75.20;;;;;;5009916;28;20032;-69
2022/04/26 13:26:36;;;;;;;;;;;14.30;78.30;;;;;;5003930;28;20383;-69
2022/04/26 13:29:03;;;;;;;;;;;14.50;83.50;;;;;;4996294;28;19987;-68
2022/04/26 13:31:29;;;;;;;;;;;15.60;79.40;;;;;;5011800;28;19935;-68
2022/04/26 13:33:56;;;;;;;;;;;16.30;74.50;;;;;;5003222;28;19929;-67
2022/04/26 13:36:22;;;;;;;;;;;16.30;71.10;;;;;;5004778;28;20442;-68
2022/04/26 13:38:47;;;;;;;;;;;16.10;72.30;;;;;;4997511;28;20004;-68
2022/04/26 13:41:13;;;;;;;;;;;16.20;74.10;;;;;;5005754;28;19929;-69
2022/04/26 13:43:41;;;;;;;;;;;17.00;74.80;;;;;;4997111;28;19977;-67
2022/04/26 13:46:07;;;;;;;;;;;18.00;69.30;;;;;;5008299;28;19929;-67
2022/04/26 13:48:33;;;;;;;;;;;18.90;68.30;;;;;;5020969;28;19925;-67
2022/04/26 13:51:01;;;;;;;;;;;19.70;65.40;;;;;;5005314;28;19934;-67
2022/04/26 13:53:30;;;;;;;;;;;19.90;60.90;;;;;;4988976;28;19929;-67
2022/04/26 13:55:56;;;;;;;;;;;19.80;60.30;;;;;;5009111;28;19925;-67
2022/04/26 13:58:21;;;;;;;;;;;19.00;60.30;;;;;;4990970;28;19926;-67
2022/04/26 14:00:47;;;;;;;;;;;18.40;62.10;;;;;;5009752;28;20437;-68
2022/04/26 14:03:13;;;;;;;;;;;18.00;61.50;;;;;;5004520;28;19934;-68
2022/04/26 14:05:38;;;;;;;;;;;17.40;65.30;;;;;;5007733;28;19925;-67
2022/04/26 14:08:04;;;;;;;;;;;17.60;63.70;;;;;;5007278;28;19964;-68
2022/04/26 14:10:30;;;;;;;;;;;17.80;64.40;;;;;;5005698;28;19929;-67
2022/04/26 14:12:57;;;;;;;;;;;17.80;62.60;;;;;;5003511;28;19925;-68
2022/04/26 14:23:42;;;;;;;;;;;15.60;68.70;;;;;;5002929;28;20025;-68
2022/04/26 14:26:08;;;;;;;;;;;15.50;68.30;;;;;;5006330;28;19972;-68
2022/04/26 14:28:33;;;;;;;;;;;15.40;68.00;;;;;;5004195;28;19932;-67
2022/04/26 14:30:59;;;;;;;;;;;15.20;68.80;;;;;;5005083;28;19925;-68
2022/04/26 14:33:27;;;;;;;;;;;15.00;69.50;;;;;;5006448;28;19932;-68
2022/04/26 14:35:53;;;;;;;;;;;14.70;69.70;;;;;;5006965;28;20367;-69
2022/04/26 14:38:19;;;;;;;;;;;14.30;71.00;;;;;;4998262;28;19989;-68
2022/04/26 14:40:45;;;;;;;;;;;14.10;71.80;;;;;;5012436;28;20348;-68
2022/04/26 14:43:11;;;;;;;;;;;14.00;72.50;;;;;;5004234;28;20079;-67
2022/04/26 14:45:44;;;;;;;;;;;13.70;75.50;;;;;;5002538;28;20045;-68
2022/04/26 14:48:10;;;;;;;;;;;13.60;75.20;;;;;;5005428;28;20020;-67
2022/04/26 14:50:37;;;;;;;;;;;14.10;74.60;;;;;;4984428;28;20305;-68
2022/04/26 14:53:03;;;;;;;;;;;13.10;75.70;;;;;;4993135;28;20336;-69
2022/04/26 14:55:28;;;;;;;;;;;12.90;76.30;;;;;;5004985;28;19925;-66
2022/04/26 14:57:54;;;;;;;;;;;13.80;78.90;;;;;;5010579;28;19925;-67
2022/04/26 15:00:20;;;;;;;;;;;12.70;80.60;;;;;;5000587;28;19925;-67
2022/04/26 15:02:45;;;;;;;;;;;12.60;81.30;;;;;;5011337;28;19932;-68
2022/04/26 15:05:11;;;;;;;;;;;12.70;81.80;;;;;;5005634;28;19925;-68
2022/04/26 15:10:22;;;;;;;;;;;12.50;82.80;;;;;;4994177;28;19926;-66
2022/04/26 15:18:17;;;;;;;;;;;12.30;84.50;;;;;;5000999;28;20007;-67
2022/04/26 15:20:46;;;;;;;;;;;12.30;82.90;;;;;;5006700;28;19929;-67
2022/04/26 15:23:11;;;;;;;;;;;12.30;84.00;;;;;;5025802;28;19925;-69
2022/04/26 15:25:37;;;;;;;;;;;12.20;83.30;;;;;;5012442;28;19926;-68
2022/04/26 15:28:03;;;;;;;;;;;12.10;84.80;;;;;;5005521;28;19921;-67
2022/04/26 15:30:28;;;;;;;;;;;12.00;86.80;;;;;;4997790;28;19926;-67
2022/04/26 15:32:54;;;;;;;;;;;12.00;88.30;;;;;;5002391;28;19925;-68
2022/04/26 15:35:19;;;;;;;;;;;12.20;86.30;;;;;;5009251;28;20447;-68
2022/04/26 15:37:45;;;;;;;;;;;12.10;87.20;;;;;;5001325;28;19979;-68
2022/04/26 15:40:11;;;;;;;;;;;12.10;88.10;;;;;;4992023;28;19926;-68
2022/04/26 15:42:38;;;;;;;;;;;12.20;86.60;;;;;;5000819;28;19946;-67
2022/04/26 15:45:03;;;;;;;;;;;12.10;85.70;;;;;;5007304;28;19925;-68
2022/04/26 15:47:29;;;;;;;;;;;12.00;85.60;;;;;;4992321;28;19925;-67
2022/04/26 15:49:55;;;;;;;;;;;12.00;85.10;;;;;;4999142;28;19932;-67
2022/04/26 15:52:20;;;;;;;;;;;11.90;86.20;;;;;;5005014;28;20276;-67
2022/04/26 15:54:46;;;;;;;;;;;11.80;86.30;;;;;;5006092;28;19926;-67
2022/04/26 15:57:11;;;;;;;;;;;11.80;86.30;;;;;;5007062;28;20086;-66
2022/04/26 15:59:37;;;;;;;;;;;11.90;84.80;;;;;;5024221;28;20011;-67
2022/04/26 16:02:04;;;;;;;;;;;11.70;85.60;;;;;;5023682;28;20329;-68
2022/04/26 16:04:29;;;;;;;;;;;11.60;85.50;;;;;;5010353;28;19948;-67
2022/04/26 16:06:55;;;;;;;;;;;11.40;86.20;;;;;;4999861;28;20363;-67
2022/04/26 16:20:40;;;;;;;;;;;11.70;90.50;;;;;;4994440;28;19933;-68
2022/04/26 16:23:06;;;;;;;;;;;11.10;90.70;;;;;;5011715;28;19929;-68
2022/04/26 16:25:32;;;;;;;;;;;11.20;91.20;;;;;;5002486;28;19929;-68
2022/04/26 16:28:00;;;;;;;;;;;11.10;91.10;;;;;;5002825;28;19929;-68
2022/04/26 16:30:28;;;;;;;;;;;11.00;90.90;;;;;;5004529;28;19937;-67
2022/04/26 16:32:55;;;;;;;;;;;11.00;91.40;;;;;;5023255;28;20024;-68
2022/04/26 16:35:22;;;;;;;;;;;11.10;91.60;;;;;;5004755;28;20055;-69
2022/04/26 16:37:47;;;;;;;;;;;11.20;91.50;;;;;;5004775;28;19921;-69
2022/04/26 16:40:13;;;;;;;;;;;11.40;91.50;;;;;;5004685;28;19925;-68
2022/04/26 16:42:41;;;;;;;;;;;11.20;91.30;;;;;;5008787;28;19925;-68
2022/04/26 16:45:10;;;;;;;;;;;11.20;91.30;;;;;;5009678;28;19929;-68
2022/04/26 16:47:36;;;;;;;;;;;11.20;91.20;;;;;;5005920;28;19956;-68
2022/04/26 16:50:02;;;;;;;;;;;11.10;89.60;;;;;;5001747;28;19953;-67
2022/04/26 16:52:28;;;;;;;;;;;11.00;90.00;;;;;;4996224;28;20475;-67
2022/04/26 16:54:54;;;;;;;;;;;10.90;90.40;;;;;;5003452;28;20004;-68
2022/04/26 16:57:20;;;;;;;;;;;10.90;89.80;;;;;;5001318;28;19956;-67
2022/04/26 16:59:45;;;;;;;;;;;10.70;90.20;;;;;;5005448;28;19980;-68
2022/04/26 17:02:14;;;;;;;;;;;10.70;90.90;;;;;;5000275;28;19922;-67
2022/04/26 17:04:40;;;;;;;;;;;10.50;91.00;;;;;;5009225;28;19929;-67
2022/04/26 17:07:05;;;;;;;;;;;10.80;91.30;;;;;;5012656;28;20367;-67
2022/04/26 17:09:33;;;;;;;;;;;10.50;91.30;;;;;;5006041;28;19925;-68
2022/04/26 17:11:58;;;;;;;;;;;10.40;91.80;;;;;;4994682;28;19921;-67
2022/04/26 17:14:24;;;;;;;;;;;10.40;92.20;;;;;;4999576;28;19925;-67
2022/04/26 17:16:50;;;;;;;;;;;10.30;92.60;;;;;;5008805;28;19921;-67
2022/04/26 17:19:16;;;;;;;;;;;10.20;93.10;;;;;;5013418;28;19968;-67
2022/04/26 17:21:47;;;;;;;;;;;10.20;93.60;;;;;;5025979;28;20015;-67
2022/04/26 17:26:58;;;;;;;;;;;10.20;94.40;;;;;;5005940;28;19937;-67
2022/04/26 17:29:23;;;;;;;;;;;10.30;94.80;;;;;;5007843;28;19921;-67
2022/04/26 17:31:53;;;;;;;;;;;10.30;94.90;;;;;;5009326;28;19921;-67
2022/04/26 17:34:19;;;;;;;;;;;10.30;95.40;;;;;;4999896;28;19921;-67
2022/04/26 17:36:45;;;;;;;;;;;10.30;95.70;;;;;;5012927;28;19926;-68
2022/04/26 17:39:14;;;;;;;;;;;10.40;95.80;;;;;;5011176;28;19922;-67
2022/04/26 17:41:40;;;;;;;;;;;10.30;95.90;;;;;;5001325;28;19922;-67
2022/04/26 17:44:07;;;;;;;;;;;10.30;96.20;;;;;;5016314;28;19922;-69
2022/04/26 17:46:33;;;;;;;;;;;10.30;96.40;;;;;;4993878;28;19937;-67
2022/04/26 17:48:58;;;;;;;;;;;10.40;96.60;;;;;;5010632;28;19925;-68
2022/04/26 17:51:24;;;;;;;;;;;10.20;96.50;;;;;;5012730;28;20020;-67
2022/04/26 17:56:35;;;;;;;;;;;10.20;96.80;;;;;;4996630;28;19968;-67
2022/04/26 17:59:02;;;;;;;;;;;10.20;97.00;;;;;;5011387;28;19957;-68
2022/04/26 18:01:27;;;;;;;;;;;10.10;97.40;;;;;;5023893;28;19961;-68
2022/04/26 18:03:53;;;;;;;;;;;10.00;97.60;;;;;;4993721;28;20367;-68
2022/04/26 18:06:19;;;;;;;;;;;10.00;97.90;;;;;;4997884;28;19921;-67
2022/04/26 18:08:46;;;;;;;;;;;10.00;98.20;;;;;;5012871;28;19921;-68
2022/04/26 18:11:12;;;;;;;;;;;9.90;98.60;;;;;;5012413;28;19957;-69
2022/04/26 18:13:38;;;;;;;;;;;9.80;99.10;;;;;;5002538;28;20399;-68
2022/04/26 18:16:05;;;;;;;;;;;9.70;99.30;;;;;;5012378;28;20016;-68
2022/04/26 18:18:31;;;;;;;;;;;9.80;99.60;;;;;;5012775;28;19961;-68
2022/04/26 18:20:58;;;;;;;;;;;10.30;99.80;;;;;;5012527;28;19996;-67
2022/04/26 18:23:24;;;;;;;;;;;9.80;99.70;;;;;;5013540;28;19968;-68
2022/04/26 18:28:34;;;;;;;;;;;9.80;99.90;;;;;;5005421;28;19929;-67
2022/04/26 18:31:00;;;;;;;;;;;9.80;99.90;;;;;;5014789;28;19940;-67
2022/04/26 18:33:25;;;;;;;;;;;9.70;99.90;;;;;;5009848;28;19928;-68
2022/04/26 18:35:51;;;;;;;;;;;10.10;99.90;;;;;;5001428;28;20394;-68
2022/04/26 18:38:17;;;;;;;;;;;9.80;99.90;;;;;;5031205;28;20486;-67
2022/04/26 18:40:43;;;;;;;;;;;9.90;99.90;;;;;;5015670;28;20275;-67
2022/04/26 18:43:09;;;;;;;;;;;9.70;99.90;;;;;;5012197;28;19948;-67
2022/04/26 18:45:37;;;;;;;;;;;9.50;99.90;;;;;;5014311;28;19925;-67
2022/04/26 18:48:03;;;;;;;;;;;9.40;99.90;;;;;;4997547;28;20013;-67
2022/04/26 18:50:28;;;;;;;;;;;9.30;99.90;;;;;;5010937;28;20378;-68
2022/04/26 18:52:54;;;;;;;;;;;9.20;99.90;;;;;;5011290;28;19921;-68
2022/04/26 18:55:19;;;;;;;;;;;9.20;99.90;;;;;;5014875;28;19922;-69
2022/04/26 18:57:45;;;;;;;;;;;9.10;99.90;;;;;;5015751;28;19969;-67
2022/04/26 19:00:11;;;;;;;;;;;9.10;99.90;;;;;;5016480;28;19975;-68
2022/04/26 19:02:37;;;;;;;;;;;9.00;99.90;;;;;;5016297;28;20021;-68